Time;durP1;ratioP1;P1;durP2;ratioP2;P2;SDS_P1;SDS_P2;PMS_P1;PMS_P2;Temp;Humidity;BMP_temperature;BMP_pressure;BME280_temperature;BME280_humidity;BME280_pressure;Samples;Min_cycle;Max_cycle;Signal;HPM_P1;HPM_P2
2022/01/24 00:00:16;;;;;;;21.02;8.43;;;5.60;99.90;;;;;;5062234;28;20040;-79
2022/01/24 00:02:44;;;;;;;23.25;8.93;;;5.50;99.90;;;;;;5080853;28;20098;-79
2022/01/24 00:05:11;;;;;;;26.05;8.95;;;5.60;99.90;;;;;;5058824;28;20440;-79
2022/01/24 00:07:37;;;;;;;;;;;5.60;99.90;;;;;;5040249;28;20054;-79
2022/01/24 00:10:11;;;;;;;25.45;8.82;;;5.60;99.90;;;;;;5054906;28;20292;-79
2022/01/24 00:12:52;;;;;;;21.23;8.73;;;5.60;99.90;;;;;;5067581;28;20052;-80
2022/01/24 00:15:46;;;;;;;23.88;9.52;;;5.60;99.90;;;;;;5073589;28;20122;-80
2022/01/24 00:18:14;;;;;;;21.60;9.05;;;5.60;99.90;;;;;;5055014;28;20059;-79
2022/01/24 00:28:56;;;;;;;26.65;9.93;;;5.50;99.90;;;;;;5055414;28;20083;-80
2022/01/24 00:31:21;;;;;;;29.15;10.88;;;5.50;99.90;;;;;;5054458;28;20076;-80
2022/01/24 00:33:47;;;;;;;26.60;10.73;;;5.50;99.90;;;;;;5055401;28;20136;-80
2022/01/24 00:36:13;;;;;;;25.88;10.02;;;5.50;99.90;;;;;;5054163;28;20048;-80
2022/01/24 00:38:39;;;;;;;27.20;10.93;;;5.50;99.90;;;;;;5038587;28;20059;-80
2022/01/24 00:41:05;;;;;;;26.38;11.00;;;5.50;99.90;;;;;;5054211;28;20056;-80
2022/01/24 00:43:47;;;;;;;26.15;10.30;;;5.50;99.90;;;;;;5072698;28;20056;-80
2022/01/24 00:46:30;;;;;;;30.63;11.18;;;5.50;99.90;;;;;;5040456;28;20049;-80
2022/01/24 00:56:50;;;;;;;24.00;10.43;;;5.50;99.90;;;;;;5072284;28;20048;-81
2022/01/24 00:59:16;;;;;;;29.53;10.97;;;5.50;99.90;;;;;;5055145;28;20102;-80
2022/01/24 01:01:42;;;;;;;30.60;11.57;;;5.50;99.90;;;;;;5038287;28;20492;-80
2022/01/24 01:04:08;;;;;;;27.48;10.60;;;5.50;99.90;;;;;;5071988;28;20502;-80
2022/01/24 01:06:34;;;;;;;24.02;10.40;;;5.50;99.90;;;;;;5054661;28;20051;-81
2022/01/24 01:19:58;;;;;;;26.90;11.30;;;5.50;99.90;;;;;;5055497;28;20064;-81
2022/01/24 01:22:24;;;;;;;27.08;10.98;;;5.40;99.90;;;;;;5038581;28;20127;-79
2022/01/24 01:24:53;;;;;;;25.30;11.15;;;5.40;99.90;;;;;;5049966;28;20098;-80
2022/01/24 01:27:27;;;;;;;30.65;10.75;;;5.40;99.90;;;;;;5054988;28;20082;-80
2022/01/24 01:30:02;;;;;;;28.40;11.43;;;5.40;99.90;;;;;;5039552;28;20058;-81
2022/01/24 01:56:25;;;;;;;28.58;11.90;;;5.50;99.90;;;;;;5072223;28;20044;-80
2022/01/24 01:58:51;;;;;;;29.95;11.98;;;5.50;99.90;;;;;;5034658;28;20047;-79
2022/01/24 02:01:17;;;;;;;29.52;12.23;;;5.50;99.90;;;;;;5051276;28;20468;-78
2022/01/24 02:03:43;;;;;;;30.23;12.23;;;5.40;99.90;;;;;;5033525;28;20047;-79
2022/01/24 02:06:08;;;;;;;32.92;13.02;;;5.40;99.90;;;;;;5033191;28;20414;-79
2022/01/24 02:08:34;;;;;;;32.53;13.43;;;5.40;99.90;;;;;;5012893;28;20211;-79
2022/01/24 02:11:01;;;;;;;31.95;13.05;;;5.40;99.90;;;;;;5035918;28;20044;-79
2022/01/24 02:13:29;;;;;;;32.38;13.25;;;5.40;99.90;;;;;;5053441;28;20116;-79
2022/01/24 02:18:49;;;;;;;34.10;13.38;;;5.40;99.90;;;;;;5078214;28;20044;-78
2022/01/24 02:24:17;;;;;;;27.92;11.07;;;5.50;99.90;;;;;;5049275;28;20049;-80
2022/01/24 02:26:43;;;;;;;31.42;12.27;;;5.50;99.90;;;;;;5026387;28;20056;-81
2022/01/24 02:29:23;;;;;;;36.28;12.77;;;5.50;99.90;;;;;;5076649;28;20138;-79
2022/01/24 02:31:51;;;;;;;32.53;12.48;;;5.50;99.90;;;;;;5076564;28;20045;-78
2022/01/24 02:34:32;;;;;;;32.08;12.95;;;5.50;99.90;;;;;;5059640;28;20059;-78
2022/01/24 02:37:05;;;;;;;34.97;13.85;;;5.50;99.90;;;;;;5065697;28;20123;-80
2022/01/24 02:39:52;;;;;;;32.63;12.43;;;5.40;99.90;;;;;;5083441;28;20108;-78
2022/01/24 02:53:06;;;;;;;31.70;12.43;;;5.40;99.90;;;;;;4997183;28;20123;-79
2022/01/24 02:55:32;;;;;;;36.03;12.02;;;5.40;99.90;;;;;;5025774;28;20150;-79
2022/01/24 02:57:58;;;;;;;32.53;12.82;;;5.40;99.90;;;;;;5071867;28;20045;-79
2022/01/24 03:00:24;;;;;;;33.42;12.23;;;5.40;99.90;;;;;;5043536;28;20542;-80
2022/01/24 03:02:50;;;;;;;31.25;12.82;;;5.40;99.90;;;;;;5061154;28;20094;-79
2022/01/24 03:05:15;;;;;;;30.27;12.07;;;5.40;99.90;;;;;;5043364;28;20070;-80
2022/01/24 03:07:41;;;;;;;32.95;12.98;;;5.40;99.90;;;;;;5059495;28;20063;-80
2022/01/24 03:10:24;;;;;;;31.30;12.23;;;5.40;99.90;;;;;;5059907;28;20144;-81
2022/01/24 03:12:58;;;;;;;31.83;12.63;;;5.40;99.90;;;;;;5081279;28;20060;-80
2022/01/24 03:15:25;;;;;;;33.55;13.05;;;5.40;99.90;;;;;;5041231;28;20071;-78
2022/01/24 03:17:50;;;;;;;35.13;13.38;;;5.30;99.90;;;;;;5010750;28;20061;-79
2022/01/24 03:20:16;;;;;;;32.00;12.70;;;5.30;99.90;;;;;;5042313;28;20179;-79
2022/01/24 03:22:42;;;;;;;29.90;12.10;;;5.40;99.90;;;;;;5059608;28;20056;-79
2022/01/24 03:25:08;;;;;;;33.53;13.50;;;5.40;99.90;;;;;;5024495;28;20057;-79
2022/01/24 03:27:34;;;;;;;35.60;14.02;;;5.40;99.90;;;;;;5014622;28;20052;-79
2022/01/24 03:29:59;;;;;;;31.58;12.13;;;5.40;99.90;;;;;;5059765;28;20123;-79
2022/01/24 03:32:25;;;;;;;33.80;13.00;;;5.30;99.90;;;;;;5058545;28;20044;-80
2022/01/24 03:34:51;;;;;;;31.27;11.93;;;5.30;99.90;;;;;;5077503;28;20405;-79
2022/01/24 03:37:16;;;;;;;32.42;12.98;;;5.30;99.90;;;;;;5059535;28;20055;-79
2022/01/24 03:39:42;;;;;;;31.35;12.23;;;5.30;99.90;;;;;;5078063;28;20816;-79
2022/01/24 03:42:08;;;;;;;36.08;13.27;;;5.30;99.90;;;;;;5025244;28;20400;-80
2022/01/24 03:44:34;;;;;;;29.70;11.73;;;5.30;99.90;;;;;;5076358;28;20435;-79
2022/01/24 03:49:45;;;;;;;32.60;12.75;;;5.30;99.90;;;;;;5073293;28;20464;-80
2022/01/24 03:52:12;;;;;;;36.05;13.45;;;5.30;99.90;;;;;;5073717;28;20044;-80
2022/01/24 03:54:38;;;;;;;32.58;12.55;;;5.30;99.90;;;;;;5019125;28;20060;-80
2022/01/24 03:57:04;;;;;;;34.78;13.52;;;5.30;99.90;;;;;;5059311;28;20044;-81
2022/01/24 03:59:31;;;;;;;36.08;13.27;;;5.30;99.90;;;;;;5054713;28;20110;-79
2022/01/24 04:02:00;;;;;;;33.30;14.00;;;5.30;99.90;;;;;;5051875;28;20041;-80
2022/01/24 04:04:26;;;;;;;33.90;12.75;;;5.30;99.90;;;;;;5047066;28;20048;-80
2022/01/24 04:06:53;;;;;;;38.67;14.43;;;5.40;99.90;;;;;;5053340;28;20143;-80
2022/01/24 04:09:19;;;;;;;33.60;13.53;;;5.40;99.90;;;;;;5054057;28;20102;-80
2022/01/24 04:11:47;;;;;;;37.83;13.98;;;5.30;99.90;;;;;;5052158;28;20144;-80
2022/01/24 04:17:03;;;;;;;38.00;14.88;;;5.40;99.90;;;;;;5036990;28;20052;-79
2022/01/24 04:21:19;;;;;;;35.33;13.52;;;5.40;99.90;;;;;;5052133;28;20255;-80
2022/01/24 04:22:18;;;;;;;39.50;13.93;;;5.30;99.90;;;;;;5052266;28;20049;-79
2022/01/24 04:24:46;;;;;;;37.42;14.48;;;5.30;99.90;;;;;;5034763;28;20099;-80
2022/01/24 04:27:15;;;;;;;37.97;14.45;;;5.30;99.90;;;;;;5052431;28;20128;-80
2022/01/24 04:29:42;;;;;;;40.53;15.20;;;5.40;99.90;;;;;;5034474;28;20056;-79
2022/01/24 04:32:09;;;;;;;37.80;14.73;;;5.40;99.90;;;;;;5052497;28;20041;-80
2022/01/24 04:34:35;;;;;;;34.57;13.97;;;5.30;99.90;;;;;;5051841;28;20132;-80
2022/01/24 04:37:01;;;;;;;42.90;14.65;;;5.30;99.90;;;;;;5051000;28;20158;-81
2022/01/24 04:39:27;;;;;;;42.70;15.93;;;5.30;99.90;;;;;;5051501;28;20489;-81
2022/01/24 04:41:56;;;;;;;46.10;17.13;;;5.30;99.90;;;;;;5050287;28;20056;-80
2022/01/24 04:53:07;;;;;;;45.95;15.90;;;5.30;99.90;;;;;;5042929;28;20489;-79
2022/01/24 04:55:33;;;;;;;42.20;15.45;;;5.30;99.90;;;;;;5002521;28;20037;-79
2022/01/24 04:57:59;;;;;;;41.10;16.33;;;5.30;99.90;;;;;;5031918;28;20063;-79
2022/01/24 05:00:25;;;;;;;42.50;15.30;;;5.30;99.90;;;;;;5056585;28;20119;-80
2022/01/24 05:02:52;;;;;;;43.75;15.48;;;5.20;99.90;;;;;;5052677;28;20071;-79
2022/01/24 05:05:20;;;;;;;41.22;15.13;;;5.20;99.90;;;;;;5055635;28;20049;-80
2022/01/24 05:07:47;;;;;;;46.45;16.70;;;5.20;99.90;;;;;;5054319;28;20057;-80
2022/01/24 05:23:31;;;;;;;40.35;14.90;;;5.30;99.90;;;;;;5038570;28;20223;-79
2022/01/24 05:25:58;;;;;;;44.95;16.67;;;5.30;99.90;;;;;;5050031;28;20230;-79
2022/01/24 05:28:25;;;;;;;41.83;15.70;;;5.30;99.90;;;;;;5051008;28;20049;-80
2022/01/24 05:30:51;;;;;;;46.65;16.52;;;5.30;99.90;;;;;;5050707;28;20048;-79
2022/01/24 05:33:17;;;;;;;46.42;17.50;;;5.30;99.90;;;;;;5051713;28;20056;-80
2022/01/24 05:35:43;;;;;;;55.08;19.55;;;5.20;99.90;;;;;;5052002;28;20056;-80
2022/01/24 05:38:12;;;;;;;53.42;18.70;;;5.30;99.90;;;;;;5053967;28;20053;-79
2022/01/24 05:40:39;;;;;;;56.22;19.05;;;5.30;99.90;;;;;;5001395;28;20048;-79
2022/01/24 05:43:06;;;;;;;50.53;19.48;;;5.20;99.90;;;;;;5053615;28;20056;-79
2022/01/24 05:45:33;;;;;;;59.40;20.17;;;5.20;99.90;;;;;;5051088;28;20120;-79
2022/01/24 05:47:59;;;;;;;55.75;20.90;;;5.20;99.90;;;;;;5051624;28;20084;-80
2022/01/24 05:50:25;;;;;;;63.03;21.63;;;5.20;99.90;;;;;;5050893;28;20071;-80
2022/01/24 05:52:51;;;;;;;61.85;22.75;;;5.30;99.90;;;;;;5030258;28;20057;-80
2022/01/24 05:55:17;;;;;;;66.55;23.33;;;5.20;99.90;;;;;;5031249;28;20045;-80
2022/01/24 05:57:43;;;;;;;68.50;22.60;;;5.30;99.90;;;;;;5013098;28;20048;-80
2022/01/24 06:00:11;;;;;;;74.28;26.15;;;5.30;99.90;;;;;;5014869;28;20049;-80
2022/01/24 06:02:37;;;;;;;80.15;25.80;;;5.30;99.90;;;;;;5029534;28;20069;-79
2022/01/24 06:05:03;;;;;;;74.95;24.92;;;5.30;99.90;;;;;;5036706;28;20052;-80
2022/01/24 06:07:29;;;;;;;79.88;26.02;;;5.30;99.90;;;;;;5027834;28;20048;-80
2022/01/24 06:09:55;;;;;;;76.18;26.17;;;5.30;99.90;;;;;;5033739;28;20682;-80
2022/01/24 06:12:22;;;;;;;75.18;26.23;;;5.30;99.90;;;;;;5034864;28;20045;-81
2022/01/24 06:14:48;;;;;;;78.47;27.48;;;5.30;99.90;;;;;;5035437;28;20152;-81
2022/01/24 06:17:15;;;;;;;87.22;30.15;;;5.30;99.90;;;;;;5033963;28;20053;-80
2022/01/24 06:19:40;;;;;;;89.28;31.23;;;5.30;99.90;;;;;;5032857;28;20060;-79
2022/01/24 06:22:09;;;;;;;86.20;30.08;;;5.30;99.90;;;;;;5034437;28;20048;-79
2022/01/24 06:24:35;;;;;;;97.28;34.80;;;5.30;99.90;;;;;;5034104;28;20485;-81
2022/01/24 06:27:01;;;;;;;92.55;35.70;;;5.30;99.90;;;;;;5048388;28;20139;-79
2022/01/24 06:29:27;;;;;;;96.60;36.40;;;5.30;99.90;;;;;;5050699;28;20041;-80
2022/01/24 06:31:53;;;;;;;91.03;34.45;;;5.30;99.90;;;;;;5049911;28;20052;-80
2022/01/24 06:34:18;;;;;;;98.43;35.67;;;5.30;99.90;;;;;;5051173;28;20048;-79
2022/01/24 06:36:44;;;;;;;97.30;34.50;;;5.30;99.90;;;;;;5033097;28;20084;-80
2022/01/24 06:39:11;;;;;;;98.57;36.97;;;5.30;99.90;;;;;;5017117;28;20094;-80
2022/01/24 06:41:38;;;;;;;98.65;35.13;;;5.30;99.90;;;;;;5048587;28;20120;-79
2022/01/24 06:44:04;;;;;;;104.07;38.03;;;5.30;99.90;;;;;;5051540;28;20049;-79
2022/01/24 06:46:30;;;;;;;97.65;35.83;;;5.30;99.90;;;;;;5033357;28;20049;-81
2022/01/24 06:48:56;;;;;;;103.05;37.72;;;5.30;99.90;;;;;;5032649;28;20572;-80
2022/01/24 06:51:22;;;;;;;97.00;38.23;;;5.30;99.90;;;;;;5049152;28;20387;-81
2022/01/24 06:53:49;;;;;;;102.03;38.83;;;5.30;99.90;;;;;;5049805;28;20441;-82
2022/01/24 06:56:15;;;;;;;104.73;38.13;;;5.40;99.90;;;;;;5050434;28;20045;-80
2022/01/24 06:58:41;;;;;;;101.05;37.03;;;5.40;99.90;;;;;;5049586;28;20279;-81
2022/01/24 07:01:08;;;;;;;103.82;36.88;;;5.40;99.90;;;;;;5051414;28;20434;-81
2022/01/24 07:03:34;;;;;;;98.88;36.42;;;5.30;99.90;;;;;;5050671;28;20087;-80
2022/01/24 07:06:00;;;;;;;105.32;38.38;;;5.30;99.90;;;;;;5034537;28;20140;-82
2022/01/24 07:08:26;;;;;;;101.15;38.67;;;5.30;99.90;;;;;;5036158;28;20040;-80
2022/01/24 07:10:52;;;;;;;107.75;38.30;;;5.30;99.90;;;;;;5050032;28;20107;-81
2022/01/24 07:13:21;;;;;;;104.93;37.77;;;5.30;99.90;;;;;;5052336;28;20056;-81
2022/01/24 07:15:54;;;;;;;109.78;39.05;;;5.30;99.90;;;;;;5050620;28;20041;-80
2022/01/24 07:21:01;;;;;;;112.72;38.30;;;5.30;99.90;;;;;;5050487;28;20048;-79
2022/01/24 07:23:27;;;;;;;107.32;38.30;;;5.30;99.90;;;;;;5054775;28;20045;-81
2022/01/24 07:25:55;;;;;;;112.95;39.20;;;5.40;99.90;;;;;;5055969;28;20045;-79
2022/01/24 07:28:20;;;;;;;103.60;37.33;;;5.40;99.90;;;;;;5039903;28;20088;-79
2022/01/24 07:30:46;;;;;;;109.40;39.17;;;5.40;99.90;;;;;;5056912;28;20065;-79
2022/01/24 07:33:16;;;;;;;100.28;36.58;;;5.40;99.90;;;;;;5056725;28;20045;-79
2022/01/24 07:35:43;;;;;;;110.50;39.45;;;5.40;99.90;;;;;;5055554;28;20259;-80
2022/01/24 07:38:09;;;;;;;101.72;36.42;;;5.30;99.90;;;;;;5057268;28;20386;-78
2022/01/24 07:40:39;;;;;;;109.05;38.10;;;5.30;99.90;;;;;;5054280;28;20051;-78
2022/01/24 07:45:34;;;;;;;102.97;37.03;;;5.30;99.90;;;;;;5055761;28;20056;-79
2022/01/24 07:48:02;;;;;;;100.83;36.40;;;5.30;99.90;;;;;;5053589;28;20372;-79
2022/01/24 07:50:28;;;;;;;99.43;35.55;;;5.30;99.90;;;;;;5054906;28;20051;-79
2022/01/24 07:52:59;;;;;;;98.65;35.42;;;5.30;99.90;;;;;;5053471;28;20041;-79
2022/01/24 07:55:26;;;;;;;102.15;36.10;;;5.30;99.90;;;;;;5052605;28;20362;-80
2022/01/24 07:57:52;;;;;;;101.82;35.22;;;5.30;99.90;;;;;;5021377;28;20489;-78
2022/01/24 08:00:18;;;;;;;95.00;34.53;;;5.30;99.90;;;;;;5033798;28;20146;-79
2022/01/24 08:02:43;;;;;;;96.25;34.22;;;5.30;99.90;;;;;;5034648;28;20045;-79
2022/01/24 08:05:10;;;;;;;97.22;34.30;;;5.30;99.90;;;;;;5032561;28;20046;-79
2022/01/24 08:07:37;;;;;;;99.03;33.78;;;5.30;99.90;;;;;;5028044;28;20049;-80
2022/01/24 08:10:05;;;;;;;101.70;34.85;;;5.30;99.90;;;;;;5034192;28;20121;-78
2022/01/24 08:12:31;;;;;;;;;;;5.30;99.90;;;;;;5033401;28;20049;-78
2022/01/24 08:15:00;;;;;;;96.60;33.50;;;5.30;99.90;;;;;;5033698;28;20350;-78
2022/01/24 08:17:26;;;;;;;97.60;33.83;;;5.30;99.90;;;;;;5011086;28;20274;-79
2022/01/24 08:19:52;;;;;;;96.75;33.42;;;5.40;99.90;;;;;;5053142;28;20135;-79
2022/01/24 08:22:18;;;;;;;99.38;34.75;;;5.40;99.90;;;;;;5037972;28;20520;-78
2022/01/24 08:24:45;;;;;;;101.03;35.17;;;5.40;99.90;;;;;;5054337;28;20057;-78
2022/01/24 08:27:12;;;;;;;101.38;34.65;;;5.40;99.90;;;;;;5051997;28;20045;-77
2022/01/24 08:29:38;;;;;;;97.55;34.17;;;5.40;99.90;;;;;;5033388;28;20045;-77
2022/01/24 08:32:04;;;;;;;103.53;35.03;;;5.40;99.90;;;;;;5018139;28;20107;-78
2022/01/24 08:34:30;;;;;;;108.90;34.33;;;5.40;99.90;;;;;;5033727;28;20396;-79
2022/01/24 08:36:56;;;;;;;108.95;35.72;;;5.40;99.90;;;;;;5045863;28;20033;-79
2022/01/24 08:39:21;;;;;;;96.60;32.92;;;5.40;99.90;;;;;;5056236;28;20080;-80
2022/01/24 08:42:02;;;;;;;93.47;34.20;;;5.40;99.90;;;;;;5021500;28;20053;-79
2022/01/24 08:45:44;;;;;;;97.50;34.05;;;5.40;99.90;;;;;;5055497;28;20064;-79
2022/01/24 08:47:24;;;;;;;94.28;31.65;;;5.50;99.90;;;;;;5040595;28;20068;-78
2022/01/24 08:49:51;;;;;;;87.63;32.42;;;5.40;99.90;;;;;;5048531;28;20041;-78
2022/01/24 08:52:17;;;;;;;87.65;31.48;;;5.40;99.90;;;;;;5055747;28;20080;-80
2022/01/24 08:54:44;;;;;;;90.18;31.00;;;5.40;99.90;;;;;;5034378;28;20053;-79
2022/01/24 08:57:13;;;;;;;90.07;31.38;;;5.40;99.90;;;;;;5032577;28;20045;-79
2022/01/24 08:59:39;;;;;;;79.53;29.73;;;5.40;99.90;;;;;;5043569;28;20064;-80
2022/01/24 09:02:05;;;;;;;90.45;30.48;;;5.40;99.90;;;;;;5038627;28;20044;-79
2022/01/24 09:04:31;;;;;;;93.00;32.20;;;5.40;99.90;;;;;;5028957;28;20104;-78
2022/01/24 09:07:03;;;;;;;92.15;31.75;;;5.40;99.90;;;;;;5041859;28;20080;-79
2022/01/24 09:09:31;;;;;;;99.85;32.45;;;5.50;99.90;;;;;;5042533;28;20056;-78
2022/01/24 09:11:57;;;;;;;89.95;30.55;;;5.50;99.90;;;;;;5052034;28;20063;-79
2022/01/24 09:14:23;;;;;;;94.70;32.08;;;5.40;99.90;;;;;;5055779;28;20132;-80
2022/01/24 09:16:49;;;;;;;88.05;31.92;;;5.40;99.90;;;;;;5052131;28;20095;-80
2022/01/24 09:19:15;;;;;;;88.10;31.38;;;5.40;99.90;;;;;;5048595;28;20133;-80
2022/01/24 09:21:41;;;;;;;97.72;33.25;;;5.40;99.90;;;;;;5048307;28;20116;-79
2022/01/24 09:24:07;;;;;;;86.47;31.50;;;5.40;99.90;;;;;;5032767;28;20057;-79
2022/01/24 09:26:33;;;;;;;90.80;31.08;;;5.40;99.90;;;;;;5016778;28;20367;-80
2022/01/24 09:28:59;;;;;;;87.07;31.33;;;5.40;99.90;;;;;;5033624;28;20048;-80
2022/01/24 09:31:25;;;;;;;91.13;30.80;;;5.40;99.90;;;;;;5048165;28;20098;-79
2022/01/24 09:33:52;;;;;;;82.18;29.80;;;5.40;99.90;;;;;;5054673;28;20099;-79
2022/01/24 09:36:18;;;;;;;92.60;32.60;;;5.50;99.90;;;;;;5038143;28;20037;-80
2022/01/24 09:38:44;;;;;;;86.38;30.80;;;5.50;99.90;;;;;;5046372;28;20049;-80
2022/01/24 09:41:13;;;;;;;86.32;30.83;;;5.40;99.90;;;;;;5043185;28;20055;-78
2022/01/24 09:43:40;;;;;;;88.50;30.15;;;5.50;99.90;;;;;;5061775;28;20090;-79
2022/01/24 09:46:06;;;;;;;90.40;30.08;;;5.50;99.90;;;;;;5063061;28;20044;-81
2022/01/24 09:48:32;;;;;;;83.95;30.70;;;5.60;99.90;;;;;;5046122;28;20045;-80
2022/01/24 09:50:58;;;;;;;84.05;30.77;;;5.50;99.90;;;;;;5058337;28;20384;-78
2022/01/24 09:53:26;;;;;;;83.63;29.88;;;5.50;99.90;;;;;;5059186;28;20049;-79
2022/01/24 09:55:53;;;;;;;86.95;31.02;;;5.50;99.90;;;;;;5057956;28;20116;-80
2022/01/24 09:58:20;;;;;;;93.37;30.67;;;5.50;99.90;;;;;;5060428;28;20074;-78
2022/01/24 10:00:46;;;;;;;;;;;5.50;99.90;;;;;;5058571;28;20072;-78
2022/01/24 10:03:13;;;;;;;86.97;29.23;;;5.60;99.90;;;;;;5055337;28;19975;-80
2022/01/24 10:05:42;;;;;;;85.97;30.20;;;5.60;99.90;;;;;;5053542;28;20049;-79
2022/01/24 10:08:13;;;;;;;85.43;30.27;;;5.60;99.90;;;;;;5043024;28;20564;-79
2022/01/24 10:10:46;;;;;;;86.57;29.83;;;5.60;99.90;;;;;;5032783;28;20340;-79
2022/01/24 10:16:35;;;;;;;72.50;27.80;;;5.60;99.90;;;;;;5051427;28;20053;-80
2022/01/24 10:19:05;;;;;;;73.88;27.95;;;5.60;99.90;;;;;;5051069;28;20061;-79
2022/01/24 10:21:45;;;;;;;74.22;27.67;;;5.60;99.90;;;;;;5057561;28;20120;-78
2022/01/24 10:24:26;;;;;;;70.68;25.35;;;5.60;99.90;;;;;;5052060;28;20063;-79
2022/01/24 10:27:11;;;;;;;73.60;27.05;;;5.60;99.90;;;;;;5051030;28;20129;-79
2022/01/24 10:29:45;;;;;;;71.28;25.02;;;5.60;99.90;;;;;;5053316;28;20049;-79
2022/01/24 10:32:31;;;;;;;73.03;25.92;;;5.60;99.90;;;;;;5051458;28;20420;-79
2022/01/24 10:35:28;;;;;;;73.07;26.02;;;5.70;99.90;;;;;;5034458;28;20083;-79
2022/01/24 10:41:39;;;;;;;65.00;24.42;;;5.70;99.90;;;;;;5050250;28;20086;-81
2022/01/24 10:44:08;;;;;;;64.57;25.98;;;5.70;99.90;;;;;;5032424;28;20350;-79
2022/01/24 10:46:34;;;;;;;64.80;26.58;;;5.80;99.90;;;;;;5033671;28;20040;-79
2022/01/24 10:49:09;;;;;;;68.10;25.73;;;5.70;99.90;;;;;;5032939;28;20064;-81
2022/01/24 10:51:44;;;;;;;59.50;24.23;;;5.70;99.90;;;;;;5051853;28;20099;-79
2022/01/24 10:54:13;;;;;;;58.58;23.85;;;5.80;99.90;;;;;;5032731;28;20058;-78
2022/01/24 10:56:45;;;;;;;57.28;24.70;;;5.80;99.90;;;;;;5048024;28;20052;-78
2022/01/24 10:59:16;;;;;;;60.60;26.52;;;5.80;99.90;;;;;;5052631;28;20059;-78
2022/01/24 11:01:51;;;;;;;63.15;24.33;;;5.80;99.90;;;;;;5054560;28;20051;-80
2022/01/24 11:04:17;;;;;;;57.83;24.42;;;5.80;99.90;;;;;;5036438;28;20076;-80
2022/01/24 11:06:48;;;;;;;59.90;25.15;;;5.70;99.90;;;;;;5054922;28;20438;-79
2022/01/24 11:09:24;;;;;;;56.22;25.38;;;5.80;99.90;;;;;;5036592;28;20045;-80
2022/01/24 11:11:54;;;;;;;59.42;25.17;;;5.80;99.90;;;;;;5052481;28;20057;-80
2022/01/24 11:14:21;;;;;;;56.85;24.60;;;5.80;99.90;;;;;;5052657;28;20091;-79
2022/01/24 11:16:49;;;;;;;58.83;24.42;;;5.80;99.90;;;;;;5053647;28;20405;-77
2022/01/24 11:19:41;;;;;;;55.60;23.80;;;5.70;99.90;;;;;;5055435;28;20064;-78
2022/01/24 11:22:18;;;;;;;51.65;22.73;;;5.70;99.90;;;;;;5059182;28;20500;-81
2022/01/24 11:24:56;;;;;;;48.25;22.27;;;5.70;99.90;;;;;;5055983;28;20069;-79
2022/01/24 11:27:22;;;;;;;47.67;23.08;;;5.80;99.90;;;;;;5053982;28;20056;-79
2022/01/24 11:29:55;;;;;;;53.15;23.15;;;5.80;99.90;;;;;;5053264;28;20077;-79
2022/01/24 11:32:38;;;;;;;48.80;22.92;;;5.80;99.90;;;;;;5052657;28;20033;-79
2022/01/24 11:35:05;;;;;;;49.17;25.02;;;5.80;99.90;;;;;;5052554;28;20438;-79
2022/01/24 11:37:44;;;;;;;50.75;24.48;;;5.80;99.90;;;;;;5053133;28;20071;-80
2022/01/24 11:40:19;;;;;;;52.40;23.50;;;5.70;99.90;;;;;;5036268;28;20462;-79
2022/01/24 11:42:47;;;;;;;50.35;24.25;;;5.70;99.90;;;;;;5051734;28;20113;-79
2022/01/24 11:45:18;;;;;;;52.80;24.55;;;5.60;99.90;;;;;;5036004;28;20064;-80
2022/01/24 11:47:46;;;;;;;57.88;25.60;;;5.60;99.90;;;;;;5054530;28;20052;-78
2022/01/24 11:50:24;;;;;;;57.33;25.45;;;5.60;99.90;;;;;;5053310;28;20107;-79
2022/01/24 11:52:56;;;;;;;52.75;24.58;;;5.60;99.90;;;;;;5053503;28;20085;-80
2022/01/24 11:55:36;;;;;;;56.50;26.17;;;5.60;99.90;;;;;;5053031;28;20445;-80
2022/01/24 11:58:06;;;;;;;62.28;27.30;;;5.60;99.90;;;;;;5053676;28;20053;-79
2022/01/24 12:00:44;;;;;;;58.22;25.50;;;5.60;99.90;;;;;;5056051;28;20064;-80
2022/01/24 12:03:23;;;;;;;57.65;27.08;;;5.60;99.90;;;;;;5054037;28;20103;-79
2022/01/24 12:05:53;;;;;;;62.17;25.85;;;5.60;99.90;;;;;;5053609;28;20059;-78
2022/01/24 12:08:41;;;;;;;59.63;26.42;;;5.70;99.90;;;;;;5054478;28;20453;-78
2022/01/24 12:11:24;;;;;;;52.67;23.60;;;5.60;99.90;;;;;;5054377;28;20087;-79
2022/01/24 12:13:54;;;;;;;46.67;21.42;;;5.60;99.90;;;;;;5059119;28;20041;-79
2022/01/24 12:16:32;;;;;;;46.60;22.23;;;5.60;99.90;;;;;;5054437;28;20119;-79
2022/01/24 12:18:59;;;;;;;46.33;22.15;;;5.50;99.90;;;;;;5029207;28;20049;-80
2022/01/24 12:21:26;;;;;;;;;;;5.60;99.90;;;;;;5006200;28;20512;-79
2022/01/24 12:24:01;;;;;;;49.80;22.52;;;5.60;99.90;;;;;;5036145;28;20283;-79
2022/01/24 12:26:32;;;;;;;45.92;20.00;;;5.60;99.90;;;;;;5051640;28;20126;-79
2022/01/24 12:29:09;;;;;;;45.50;19.85;;;5.60;99.90;;;;;;5054136;28;20041;-80
2022/01/24 12:31:44;;;;;;;;;;;5.60;99.90;;;;;;5054135;28;20044;-79
2022/01/24 12:34:17;;;;;;;41.70;18.73;;;5.60;99.90;;;;;;5032706;28;19928;-80
2022/01/24 12:36:50;;;;;;;45.78;19.92;;;5.50;99.90;;;;;;5015896;28;20378;-79
2022/01/24 12:39:25;;;;;;;42.13;20.23;;;5.50;99.90;;;;;;5031935;28;20091;-80
2022/01/24 12:41:59;;;;;;;44.78;19.65;;;5.60;99.90;;;;;;5031119;28;20042;-80
2022/01/24 12:47:27;;;;;;;42.63;19.13;;;5.70;99.90;;;;;;5053506;28;20057;-80
2022/01/24 12:49:54;;;;;;;38.15;17.63;;;5.70;99.90;;;;;;5051672;28;20140;-80
2022/01/24 12:52:23;;;;;;;41.80;19.10;;;5.80;99.90;;;;;;5060431;28;20431;-78
2022/01/24 12:54:56;;;;;;;41.70;19.30;;;5.80;99.90;;;;;;5043150;28;20057;-80
2022/01/24 12:57:29;;;;;;;41.58;19.40;;;5.80;99.90;;;;;;5041349;28;20128;-80
2022/01/24 13:00:10;;;;;;;46.22;19.88;;;5.80;99.90;;;;;;5033550;28;20154;-81
2022/01/24 13:02:38;;;;;;;47.60;21.13;;;5.80;99.90;;;;;;5014837;28;20132;-80
2022/01/24 13:05:12;;;;;;;45.40;20.33;;;5.70;99.90;;;;;;5030331;28;20055;-80
2022/01/24 13:07:40;;;;;;;45.45;20.83;;;5.70;99.90;;;;;;5035195;28;20139;-81
2022/01/24 13:10:15;;;;;;;50.35;21.88;;;5.60;99.90;;;;;;5051642;28;20135;-81
2022/01/24 13:12:43;;;;;;;51.85;23.40;;;5.40;99.90;;;;;;5052081;28;20124;-81
2022/01/24 13:20:24;;;;;;;51.85;22.50;;;5.40;99.90;;;;;;5053342;28;20141;-78
2022/01/24 13:21:15;;;;;;;56.50;23.38;;;5.50;99.90;;;;;;5052826;28;20080;-81
2022/01/24 13:23:45;;;;;;;47.03;20.83;;;5.50;99.90;;;;;;5053843;28;20049;-80
2022/01/24 13:26:13;;;;;;;47.63;21.42;;;5.50;99.90;;;;;;5022207;28;20135;-80
2022/01/24 13:28:40;;;;;;;55.70;23.02;;;5.50;99.90;;;;;;5054352;28;20037;-80
2022/01/24 13:31:07;;;;;;;65.45;26.38;;;5.50;99.90;;;;;;5036504;28;20444;-79
2022/01/24 13:33:46;;;;;;;55.80;23.83;;;5.50;99.90;;;;;;5053643;28;20049;-79
2022/01/24 13:36:16;;;;;;;55.78;23.42;;;5.50;99.90;;;;;;5037192;28;20044;-79
2022/01/24 13:38:45;;;;;;;56.88;23.67;;;5.40;99.90;;;;;;5019953;28;20044;-79
2022/01/24 13:41:17;;;;;;;55.00;24.05;;;5.50;99.90;;;;;;5052550;28;20124;-81
2022/01/24 13:43:47;;;;;;;58.58;23.48;;;5.50;99.90;;;;;;5055760;28;20456;-78
2022/01/24 13:46:28;;;;;;;58.78;23.70;;;5.60;99.90;;;;;;5053549;28;20055;-79
2022/01/24 13:49:05;;;;;;;56.83;23.73;;;5.50;99.90;;;;;;5050304;28;20045;-79
2022/01/24 13:51:52;;;;;;;56.42;22.75;;;5.50;99.90;;;;;;5016249;28;20155;-80
2022/01/24 13:54:20;;;;;;;52.80;22.30;;;5.50;99.90;;;;;;5015645;28;20548;-79
2022/01/24 13:56:50;;;;;;;54.75;22.88;;;5.50;99.90;;;;;;5048122;28;20137;-80
2022/01/24 13:59:30;;;;;;;52.60;23.27;;;5.60;99.90;;;;;;5049774;28;20064;-80
2022/01/24 14:02:15;;;;;;;55.08;22.65;;;5.40;99.90;;;;;;5018096;28;20037;-79
2022/01/24 14:05:02;;;;;;;60.80;24.20;;;5.50;99.90;;;;;;5031853;28;20072;-81
2022/01/24 14:07:31;;;;;;;56.80;23.17;;;5.50;99.90;;;;;;5015934;28;20523;-79
2022/01/24 14:10:01;;;;;;;64.15;26.40;;;5.50;99.90;;;;;;5031303;28;20099;-79
2022/01/24 14:12:51;;;;;;;58.65;24.30;;;5.50;99.90;;;;;;5031982;28;20049;-80
2022/01/24 14:15:40;;;;;;;61.85;24.63;;;5.50;99.90;;;;;;5031966;28;20103;-81
2022/01/24 14:20:47;;;;;;;63.20;24.20;;;5.50;99.90;;;;;;5053472;28;20117;-80
2022/01/24 14:23:51;;;;;;;70.70;26.35;;;5.50;99.90;;;;;;5034847;28;20064;-79
2022/01/24 14:26:22;;;;;;;66.15;23.98;;;5.50;99.90;;;;;;5049450;28;20118;-80
2022/01/24 14:29:02;;;;;;;59.08;24.30;;;5.40;99.90;;;;;;5050596;28;20048;-81
2022/01/24 14:31:31;;;;;;;63.08;25.15;;;5.40;99.90;;;;;;5050263;28;20037;-81
2022/01/24 14:34:03;;;;;;;60.88;24.20;;;5.40;99.90;;;;;;5051585;28;20049;-79
2022/01/24 14:36:31;;;;;;;65.05;23.88;;;5.30;99.90;;;;;;5035564;28;20053;-80
2022/01/24 14:39:06;;;;;;;60.80;24.73;;;5.30;99.90;;;;;;5043067;28;20049;-81
2022/01/24 14:41:48;;;;;;;64.97;24.77;;;5.40;99.90;;;;;;5040978;28;20047;-80
2022/01/24 14:47:05;;;;;;;62.00;24.90;;;5.40;99.90;;;;;;5041785;28;20047;-79
2022/01/24 14:49:35;;;;;;;65.55;25.08;;;5.40;99.90;;;;;;5038389;28;20129;-80